Time,TemperatureF,DewpointF,PressureIn,WindDirection,WindDirectionDegrees,WindSpeedMPH,WindSpeedGustMPH,Humidity,HourlyPrecipIn,Conditions,Clouds,dailyrainin,SoftwareType,DateUTC
2013-03-05 00:01:00,40.6,33.6,30.25,East,98,0.0,4.0,76,0.00,,---,0.00,VWS V13.01,2013-03-05 08:01:00,
2013-03-05 00:31:00,38.5,32.6,30.25,East,98,0.0,0.0,79,0.00,,---,0.00,VWS V13.01,2013-03-05 08:31:00,
2013-03-05 01:01:00,38.9,32.3,30.25,East,98,0.0,0.0,77,0.00,,---,0.00,VWS V13.01,2013-03-05 09:01:00,
2013-03-05 01:31:00,39.2,32.3,30.25,East,99,0.0,4.0,76,0.00,,---,0.00,VWS V13.01,2013-03-05 09:31:00,
2013-03-05 02:01:00,36.8,31.8,30.24,East,99,0.0,0.0,82,0.00,,---,0.00,VWS V13.01,2013-03-05 10:01:00,
2013-03-05 02:31:00,35.9,31.2,30.25,East,99,0.0,0.0,83,0.00,,---,0.00,VWS V13.01,2013-03-05 10:31:00,
2013-03-05 03:01:00,35.3,31.5,30.24,East,99,0.0,1.0,86,0.00,,---,0.00,VWS V13.01,2013-03-05 11:01:00,
2013-03-05 03:31:00,41.3,33.7,30.21,East,98,3.0,4.0,74,0.00,,---,0.00,VWS V13.01,2013-03-05 11:31:00,
2013-03-05 04:01:00,43.5,32.5,30.20,East,96,0.0,5.0,65,0.00,,---,0.00,VWS V13.01,2013-03-05 12:01:00,
2013-03-05 04:31:00,37.0,30.5,30.26,East,96,0.0,0.0,77,0.00,,---,0.00,VWS V13.01,2013-03-05 12:31:00,
2013-03-05 05:01:00,42.3,32.1,30.23,East,97,2.0,4.0,67,0.00,,---,0.00,VWS V13.01,2013-03-05 13:01:00,
2013-03-05 05:31:00,45.5,32.0,30.25,East,97,1.0,5.0,59,0.00,,---,0.00,VWS V13.01,2013-03-05 13:31:00,
2013-03-05 06:01:00,44.1,32.7,30.26,East,97,0.0,4.0,64,0.00,,---,0.00,VWS V13.01,2013-03-05 14:01:00,
2013-03-05 06:31:00,46.0,32.9,30.28,East,97,3.0,5.0,60,0.00,,---,0.00,VWS V13.01,2013-03-05 14:31:00,
2013-03-05 07:01:00,47.6,33.1,30.28,East,98,0.0,5.0,57,0.00,,---,0.00,VWS V13.01,2013-03-05 15:01:00,
2013-03-05 07:31:00,49.6,34.1,30.29,East,96,0.0,5.0,55,0.00,,---,0.00,VWS V13.01,2013-03-05 15:31:00,
2013-03-05 08:01:00,51.0,35.0,30.28,East,97,0.0,3.0,54,0.00,,---,0.00,VWS V13.01,2013-03-05 16:01:00,
2013-03-05 08:31:00,52.6,35.5,30.24,East,96,0.0,0.0,52,0.00,,---,0.00,VWS V13.01,2013-03-05 16:31:00,
2013-03-05 09:01:00,54.7,35.4,30.24,SE,138,0.0,5.0,48,0.00,,---,0.00,VWS V13.01,2013-03-05 17:01:00,
2013-03-05 09:31:00,56.5,33.1,30.22,ENE,70,2.0,7.0,41,0.00,,---,0.00,VWS V13.01,2013-03-05 17:31:00,
2013-03-05 10:01:00,57.8,33.7,30.22,East,92,4.0,11.0,40,0.00,,---,0.00,VWS V13.01,2013-03-05 18:01:00,
2013-03-05 10:31:00,59.3,34.4,30.25,ESE,112,5.0,10.0,39,0.00,,---,0.00,VWS V13.01,2013-03-05 18:31:00,
2013-03-05 11:01:00,59.5,35.8,30.25,SE,146,0.0,9.0,41,0.00,,---,0.00,VWS V13.01,2013-03-05 19:01:00,
2013-03-05 11:31:00,61.3,40.4,30.21,WNW,283,4.0,7.0,46,0.00,,---,0.00,VWS V13.01,2013-03-05 19:31:00,
2013-03-05 12:01:00,62.7,41.6,30.18,North,357,4.0,11.0,46,0.00,,---,0.00,VWS V13.01,2013-03-05 20:01:00,
2013-03-05 12:31:00,63.1,43.1,30.17,North,0,0.0,10.0,48,0.00,,---,0.00,VWS V13.01,2013-03-05 20:31:00,
2013-03-05 13:01:00,62.6,42.7,30.17,SW,231,6.0,12.0,48,0.00,,---,0.00,VWS V13.01,2013-03-05 21:01:00,
2013-03-05 13:31:00,61.2,46.3,30.17,SW,214,1.0,10.0,58,0.00,,---,0.00,VWS V13.01,2013-03-05 21:31:00,
2013-03-05 14:01:00,58.9,47.2,30.18,WSW,251,6.0,15.0,65,0.00,,---,0.00,VWS V13.01,2013-03-05 22:01:00,
2013-03-05 14:31:00,58.7,48.6,30.18,SSW,200,4.0,13.0,69,0.00,,---,0.00,VWS V13.01,2013-03-05 22:31:00,
2013-03-05 15:01:00,57.6,47.1,30.20,South,179,0.0,12.0,68,0.00,,---,0.00,VWS V13.01,2013-03-05 23:01:00,
2013-03-05 15:31:00,56.9,47.2,30.15,NW,316,4.0,12.0,70,0.00,,---,0.00,VWS V13.01,2013-03-05 23:31:00,
2013-03-05 16:01:00,55.4,47.3,30.15,NNW,336,0.0,10.0,74,0.00,,---,0.00,VWS V13.01,2013-03-06 00:01:00,
2013-03-05 16:31:00,51.7,46.4,30.17,NNE,13,5.0,11.0,82,0.00,,---,0.00,VWS V13.01,2013-03-06 00:31:00,
2013-03-05 17:01:00,49.6,45.9,30.18,East,96,3.0,14.0,87,0.00,,---,0.00,VWS V13.01,2013-03-06 01:01:00,
2013-03-05 17:31:00,47.9,45.4,30.18,NE,44,3.0,9.0,91,0.00,,---,0.00,VWS V13.01,2013-03-06 01:31:00,
2013-03-05 18:01:00,46.7,44.8,30.20,NE,53,2.0,7.0,93,0.00,,---,0.00,VWS V13.01,2013-03-06 02:01:00,
2013-03-05 18:31:00,44.6,42.4,30.20,NE,53,0.0,4.0,92,0.00,,---,0.00,VWS V13.01,2013-03-06 02:31:00,
2013-03-05 19:01:00,41.9,39.8,30.20,NE,53,3.0,5.0,92,0.00,,---,0.00,VWS V13.01,2013-03-06 03:01:00,
2013-03-05 19:31:00,48.2,28.9,30.17,South,187,5.0,12.0,47,0.00,,---,0.00,VWS V13.01,2013-03-06 03:31:00,
2013-03-05 20:01:00,49.9,24.7,30.16,West,267,3.0,13.0,37,0.00,,---,0.00,VWS V13.01,2013-03-06 04:01:00,
2013-03-05 20:31:00,43.5,36.1,30.18,North,1,6.0,14.0,75,0.00,,---,0.00,VWS V13.01,2013-03-06 04:31:00,
2013-03-05 21:01:00,40.6,39.0,30.18,NE,49,6.0,12.0,94,0.00,,---,0.00,VWS V13.01,2013-03-06 05:01:00,
2013-03-05 21:31:00,40.1,39.0,30.17,WNW,283,6.0,13.0,96,0.00,,---,0.00,VWS V13.01,2013-03-06 05:31:00,
2013-03-05 22:01:00,39.6,37.8,30.17,WNW,290,1.0,11.0,93,0.00,,---,0.00,VWS V13.01,2013-03-06 06:01:00,
2013-03-05 22:31:00,38.9,37.3,30.16,NNE,19,0.0,10.0,94,0.00,,---,0.00,VWS V13.01,2013-03-06 06:31:00,
2013-03-05 23:01:00,39.2,37.9,30.16,SW,231,2.0,15.0,95,0.00,,---,0.00,VWS V13.01,2013-03-06 07:01:00,
2013-03-05 23:31:00,39.6,38.6,30.14,WNW,288,7.0,19.0,96,0.00,,---,0.00,VWS V13.01,2013-03-06 07:31:00,